Time;durP1;ratioP1;P1;durP2;ratioP2;P2;SDS_P1;SDS_P2;PMS_P1;PMS_P2;Temp;Humidity;BMP_temperature;BMP_pressure;BME280_temperature;BME280_humidity;BME280_pressure;Samples;Min_cycle;Max_cycle;Signal;HPM_P1;HPM_P2
2022/10/18 00:00:46;;;;;;;9.00;4.95;;;;;;;13.64;97.59;99460.25;4158869;28;20083;-74
2022/10/18 00:02:46;;;;;;;7.50;4.70;;;;;;;13.66;97.77;99463.47;4162570;28;20079;-74
2022/10/18 00:04:47;;;;;;;8.40;5.13;;;;;;;13.64;98.15;99471.34;4156529;28;20061;-74
2022/10/18 00:06:47;;;;;;;7.45;4.85;;;;;;;13.65;98.37;99464.63;4157486;28;20038;-74
2022/10/18 00:08:47;;;;;;;6.50;5.00;;;;;;;13.65;98.67;99464.63;4156199;28;20125;-74
2022/10/18 00:10:48;;;;;;;8.32;5.10;;;;;;;13.64;98.69;99461.03;4158202;28;20119;-74
2022/10/18 00:12:48;;;;;;;10.23;5.55;;;;;;;13.65;98.77;99464.63;4157739;28;20050;-74
2022/10/18 00:14:49;;;;;;;6.82;5.22;;;;;;;13.62;98.23;99474.53;4157120;28;20069;-74
2022/10/18 00:16:49;;;;;;;11.93;4.85;;;;;;;13.62;99.57;99470.94;4156949;28;20045;-74
2022/10/18 00:18:50;;;;;;;6.00;4.57;;;;;;;13.60;99.49;99474.09;4156062;28;20048;-74
2022/10/18 00:21:01;;;;;;;9.25;5.57;;;;;;;13.56;100.00;99472.44;4159314;28;20050;-74
2022/10/18 00:23:01;;;;;;;8.30;5.53;;;;;;;13.52;100.00;99471.59;4156326;28;20053;-74
2022/10/18 00:25:03;;;;;;;11.48;5.20;;;;;;;13.51;100.00;99473.56;4157065;28;20163;-74
2022/10/18 00:27:03;;;;;;;8.75;5.25;;;;;;;13.44;100.00;99468.69;4161100;28;20707;-74
2022/10/18 00:29:04;;;;;;;6.97;4.65;;;;;;;13.47;100.00;99476.28;4156838;28;20050;-74
2022/10/18 00:31:13;;;;;;;12.02;5.43;;;;;;;13.52;99.66;99479.94;4156673;28;20132;-74
2022/10/18 00:33:14;;;;;;;7.70;5.18;;;;;;;13.52;99.84;99477.94;4156023;28;20273;-74
2022/10/18 00:35:14;;;;;;;5.60;4.88;;;;;;;13.50;99.72;99474.75;4157926;28;20057;-74
2022/10/18 00:37:14;;;;;;;7.70;4.88;;;;;;;13.48;100.00;99474.28;4156331;28;20064;-74
2022/10/18 00:39:17;;;;;;;5.68;4.85;;;;;;;13.46;100.00;99460.78;4155700;28;20043;-74
2022/10/18 00:41:21;;;;;;;9.43;5.45;;;;;;;13.46;100.00;99457.19;4156076;28;20549;-74
2022/10/18 00:43:21;;;;;;;6.60;4.63;;;;;;;13.44;99.82;99463.13;4159288;28;20052;-74
2022/10/18 00:45:23;;;;;;;8.57;5.38;;;;;;;13.43;99.71;99463.50;4156168;28;20033;-74
2022/10/18 00:47:23;;;;;;;8.90;4.70;;;;;;;13.46;99.05;99465.53;4157547;28;20586;-74
2022/10/18 00:49:31;;;;;;;5.60;4.35;;;;;;;13.46;98.17;99466.31;4157147;28;20033;-74
2022/10/18 00:51:52;;;;;;;5.03;4.30;;;;;;;13.49;98.70;99468.38;4157530;28;20718;-74
2022/10/18 00:53:52;;;;;;;6.97;4.80;;;;;;;13.48;98.89;99469.53;4149570;28;20041;-74
2022/10/18 00:55:52;;;;;;;6.57;5.00;;;;;;;13.47;99.43;99459.59;4155385;28;20106;-74
2022/10/18 00:57:54;;;;;;;8.57;5.07;;;;;;;13.46;99.76;99459.97;4157035;28;20054;-74
2022/10/18 00:59:54;;;;;;;7.25;5.18;;;;;;;13.46;100.00;99466.31;4155750;28;20052;-74
2022/10/18 01:01:55;;;;;;;7.75;5.57;;;;;;;13.43;100.00;99455.97;4154429;28;20041;-74
2022/10/18 01:03:56;;;;;;;8.32;5.00;;;;;;;13.46;100.00;99451.63;4157545;28;20045;-74
2022/10/18 01:05:57;;;;;;;6.53;4.63;;;;;;;13.49;99.69;99454.47;4156516;28;20057;-74
2022/10/18 01:08:13;;;;;;;5.53;4.40;;;;;;;13.48;99.76;99447.28;4156134;28;20037;-74
2022/10/18 01:10:29;;;;;;;8.38;4.75;;;;;;;13.53;99.65;99456.50;4154566;28;20477;-74
2022/10/18 01:12:44;;;;;;;6.32;4.60;;;;;;;13.51;100.00;99462.44;4156238;28;20540;-74
2022/10/18 01:15:07;;;;;;;7.35;5.60;;;;;;;13.51;100.00;99462.44;4157464;28;20263;-74
2022/10/18 01:17:18;;;;;;;7.30;4.53;;;;;;;13.46;100.00;99458.00;4164234;28;20071;-74
2022/10/18 01:19:42;;;;;;;9.25;5.50;;;;;;;13.48;100.00;99463.16;4155011;28;20573;-74
2022/10/18 01:22:01;;;;;;;6.53;5.25;;;;;;;13.48;100.00;99465.94;4159296;28;20367;-74
2022/10/18 01:24:44;;;;;;;9.52;5.20;;;;;;;13.51;100.00;99464.41;4158869;28;20477;-75
2022/10/18 01:26:54;;;;;;;5.75;5.13;;;;;;;13.53;100.00;99467.63;4130637;28;20107;-74
2022/10/18 01:29:24;;;;;;;7.05;4.95;;;;;;;13.54;100.00;99467.25;4156890;28;20512;-74
2022/10/18 01:31:31;;;;;;;9.13;5.82;;;;;;;13.55;100.00;99459.72;4156213;28;20141;-73
2022/10/18 01:33:40;;;;;;;6.82;5.22;;;;;;;13.54;100.00;99463.66;4156562;28;20473;-74
2022/10/18 01:35:46;;;;;;;8.35;5.35;;;;;;;13.55;100.00;99463.28;4160372;28;20049;-74
2022/10/18 01:37:49;;;;;;;9.32;6.05;;;;;;;13.54;100.00;99455.31;4156801;28;20048;-74
2022/10/18 01:39:55;;;;;;;11.55;5.57;;;;;;;13.54;100.00;99458.91;4156477;28;20057;-74
2022/10/18 01:41:58;;;;;;;8.02;5.22;;;;;;;13.54;100.00;99466.44;4157012;28;20359;-74
2022/10/18 01:44:01;;;;;;;8.13;5.05;;;;;;;13.53;100.00;99467.63;4154638;28;20053;-74
2022/10/18 01:46:03;;;;;;;7.78;5.30;;;;;;;13.54;100.00;99474.78;4160114;28;20085;-74
2022/10/18 01:48:04;;;;;;;7.30;5.20;;;;;;;13.53;100.00;99470.41;4155162;28;20111;-74
2022/10/18 01:50:05;;;;;;;6.32;4.85;;;;;;;13.55;100.00;99470.81;4154322;28;20679;-74
2022/10/18 01:52:05;;;;;;;8.00;5.13;;;;;;;13.54;100.00;99460.88;4154713;28;20116;-74
2022/10/18 01:54:06;;;;;;;10.10;6.25;;;;;;;13.53;100.00;99467.63;4160110;28;20457;-74
2022/10/18 01:56:19;;;;;;;6.05;4.88;;;;;;;13.48;100.00;99463.97;4154939;28;20033;-74
2022/10/18 01:58:31;;;;;;;6.82;4.78;;;;;;;13.49;100.00;99465.59;4155098;28;20041;-74
2022/10/18 02:00:39;;;;;;;7.87;4.97;;;;;;;13.47;100.00;99465.16;4161204;28;20443;-74
2022/10/18 02:02:48;;;;;;;10.10;5.22;;;;;;;13.51;100.00;99464.41;4157742;28;20334;-74
2022/10/18 02:05:00;;;;;;;7.50;4.97;;;;;;;13.53;100.00;99462.06;4156031;28;20042;-74
2022/10/18 02:07:11;;;;;;;6.63;5.20;;;;;;;13.51;100.00;99458.88;4154207;28;20482;-74
2022/10/18 02:09:18;;;;;;;7.68;5.32;;;;;;;13.53;100.00;99459.28;4157613;28;20049;-74
2022/10/18 02:11:19;;;;;;;7.25;5.35;;;;;;;13.49;100.00;99471.16;4160682;28;20045;-74
2022/10/18 02:13:22;;;;;;;6.20;5.38;;;;;;;13.47;100.00;99462.38;4154081;28;20412;-74
2022/10/18 02:15:28;;;;;;;8.38;5.35;;;;;;;13.46;100.00;99455.22;4155078;28;20041;-74
2022/10/18 02:17:29;;;;;;;12.82;5.55;;;;;;;13.41;100.00;99455.56;4157247;28;20045;-74
2022/10/18 02:19:31;;;;;;;6.03;4.97;;;;;;;13.43;100.00;99464.31;4156692;28;20088;-74
2022/10/18 02:21:32;;;;;;;10.38;5.32;;;;;;;13.44;100.00;99457.56;4154299;28;20144;-74
2022/10/18 02:23:33;;;;;;;8.27;5.85;;;;;;;13.43;100.00;99460.72;4155053;28;20045;-74
2022/10/18 02:25:34;;;;;;;9.60;5.47;;;;;;;13.45;100.00;99456.38;4155760;28;20071;-74
2022/10/18 02:27:36;;;;;;;7.07;5.15;;;;;;;13.47;100.00;99458.78;4155539;28;20052;-74
2022/10/18 02:29:37;;;;;;;6.00;4.78;;;;;;;13.49;100.00;99462.81;4155004;28;20045;-74
2022/10/18 02:31:53;;;;;;;9.07;5.65;;;;;;;13.51;100.00;99459.66;4154135;28;20124;-74
2022/10/18 02:34:29;;;;;;;7.05;4.78;;;;;;;13.51;100.00;99458.88;4155418;28;20057;-74
2022/10/18 02:36:35;;;;;;;10.40;5.40;;;;;;;13.49;100.00;99457.25;4133479;28;20045;-75
2022/10/18 02:38:38;;;;;;;5.82;4.90;;;;;;;13.46;100.00;99449.66;4154298;28;20697;-74
2022/10/18 02:40:38;;;;;;;6.55;4.47;;;;;;;13.48;100.00;99460.38;4157637;28;20033;-74
2022/10/18 02:42:46;;;;;;;10.00;4.63;;;;;;;13.45;100.00;99467.50;4154339;28;20563;-74
2022/10/18 02:44:47;;;;;;;5.40;4.65;;;;;;;13.45;100.00;99464.72;4154790;28;20066;-74
2022/10/18 02:46:47;;;;;;;7.40;5.57;;;;;;;13.44;100.00;99454.78;4155610;28;20465;-74
2022/10/18 02:48:48;;;;;;;9.52;5.93;;;;;;;13.42;100.00;99461.91;4154999;28;20057;-74
2022/10/18 02:50:48;;;;;;;8.85;5.32;;;;;;;13.43;100.00;99463.50;4155980;28;20145;-74
2022/10/18 02:52:48;;;;;;;9.15;5.47;;;;;;;13.39;100.00;99452.31;4157795;28;20054;-74
2022/10/18 02:54:49;;;;;;;12.75;6.03;;;;;;;13.38;100.00;99456.28;4154529;28;20080;-74
2022/10/18 02:56:49;;;;;;;8.75;5.32;;;;;;;13.40;100.00;99465.03;4155108;28;20041;-74
2022/10/18 02:58:50;;;;;;;6.68;5.13;;;;;;;13.40;100.00;99470.59;4155352;28;20496;-74
2022/10/18 03:00:50;;;;;;;6.05;5.28;;;;;;;13.39;100.00;99465.41;4155382;28;20072;-74
2022/10/18 03:02:52;;;;;;;6.63;4.78;;;;;;;13.41;100.00;99463.09;4155005;28;20057;-74
2022/10/18 03:04:52;;;;;;;7.57;5.32;;;;;;;13.40;100.00;99462.25;4154734;28;20086;-74
2022/10/18 03:06:53;;;;;;;8.93;5.35;;;;;;;13.44;100.00;99463.13;4155053;28;20052;-74
2022/10/18 03:08:53;;;;;;;8.20;5.28;;;;;;;13.44;100.00;99462.34;4154326;28;20091;-74
2022/10/18 03:10:53;;;;;;;7.45;5.65;;;;;;;13.44;100.00;99459.53;4155655;28;20041;-74
2022/10/18 03:12:53;;;;;;;8.63;5.78;;;;;;;13.42;100.00;99461.91;4153893;28;20080;-74
2022/10/18 03:14:54;;;;;;;7.68;5.65;;;;;;;13.43;100.00;99460.72;4154220;28;20041;-74
2022/10/18 03:16:54;;;;;;;8.15;6.50;;;;;;;13.40;100.00;99458.69;4154344;28;20486;-74
2022/10/18 03:18:54;;;;;;;10.07;5.80;;;;;;;13.40;100.00;99458.69;4156705;28;20115;-74
2022/10/18 03:20:55;;;;;;;7.95;5.50;;;;;;;13.44;100.00;99460.34;4154115;28;20041;-74
2022/10/18 03:22:55;;;;;;;8.88;6.00;;;;;;;13.48;100.00;99454.84;4154307;28;20064;-74
2022/10/18 03:24:55;;;;;;;8.20;5.78;;;;;;;13.50;100.00;99449.72;4154565;28;20145;-74
2022/10/18 03:26:56;;;;;;;7.93;5.88;;;;;;;13.53;100.00;99446.19;4153957;28;20389;-73
2022/10/18 03:28:56;;;;;;;8.70;5.55;;;;;;;13.50;100.00;99455.28;4154041;28;20100;-74
2022/10/18 03:31:01;;;;;;;8.85;5.85;;;;;;;13.53;100.00;99462.06;4153700;28;20056;-74
2022/10/18 03:33:01;;;;;;;9.75;5.93;;;;;;;13.54;100.00;99455.31;4154203;28;20045;-74
2022/10/18 03:35:01;;;;;;;8.05;5.60;;;;;;;13.54;100.00;99458.09;4153923;28;20139;-74
2022/10/18 03:37:02;;;;;;;9.65;5.45;;;;;;;13.54;100.00;99446.97;4154325;28;20656;-74
2022/10/18 03:39:02;;;;;;;7.32;5.55;;;;;;;13.58;100.00;99450.63;4155542;28;20160;-74
2022/10/18 03:41:02;;;;;;;7.65;5.20;;;;;;;13.64;100.00;99457.47;4157046;28;20099;-74
2022/10/18 03:43:03;;;;;;;5.85;5.05;;;;;;;13.66;100.00;99446.78;4157380;28;20051;-74
2022/10/18 03:45:03;;;;;;;10.43;5.60;;;;;;;13.66;100.00;99435.66;4163200;28;20293;-74
2022/10/18 03:47:04;;;;;;;11.10;6.15;;;;;;;13.64;100.00;99438.00;4160211;28;20380;-74
2022/10/18 03:49:04;;;;;;;9.20;5.63;;;;;;;13.61;100.00;99431.22;4163409;28;20536;-74
2022/10/18 03:51:04;;;;;;;8.77;6.45;;;;;;;13.61;100.00;99434.00;4158651;28;20041;-74
2022/10/18 03:53:05;;;;;;;7.78;5.82;;;;;;;13.57;100.00;99437.88;4157956;28;20482;-74
2022/10/18 03:55:05;;;;;;;7.93;5.50;;;;;;;13.57;100.00;99437.88;4163071;28;20052;-74
2022/10/18 03:57:06;;;;;;;7.38;5.65;;;;;;;13.55;100.00;99426.34;4158124;28;20049;-74
2022/10/18 03:59:06;;;;;;;11.45;6.30;;;;;;;13.54;100.00;99427.53;4161854;28;20128;-74
2022/10/18 04:01:06;;;;;;;10.30;6.50;;;;;;;13.48;100.00;99421.47;4156993;28;20091;-74
2022/10/18 04:03:07;;;;;;;10.38;6.57;;;;;;;13.46;100.00;99421.06;4157180;28;20347;-74
2022/10/18 04:05:08;;;;;;;9.27;6.00;;;;;;;13.43;100.00;99421.81;4158946;28;20723;-74
2022/10/18 04:07:08;;;;;;;13.98;6.82;;;;;;;13.40;100.00;99423.34;4158862;28;20045;-74
2022/10/18 04:09:09;;;;;;;9.65;6.72;;;;;;;13.38;100.00;99427.69;4156943;28;20128;-74
2022/10/18 04:11:10;;;;;;;9.43;6.55;;;;;;;13.35;100.00;99432.00;4156684;28;20053;-75
2022/10/18 04:13:11;;;;;;;9.63;7.20;;;;;;;13.36;100.00;99435.59;4157463;28;20125;-74
2022/10/18 04:15:11;;;;;;;10.82;7.03;;;;;;;13.36;100.00;99430.03;4158924;28;20046;-74
2022/10/18 04:17:11;;;;;;;12.15;7.22;;;;;;;13.36;100.00;99425.28;4156531;28;20045;-75
2022/10/18 04:19:12;;;;;;;9.40;7.38;;;;;;;13.39;100.00;99426.50;4156403;28;20033;-74
2022/10/18 04:21:12;;;;;;;9.52;7.15;;;;;;;13.44;100.00;99421.44;4157045;28;20037;-74
2022/10/18 04:23:12;;;;;;;10.70;7.35;;;;;;;13.42;100.00;99437.69;4156665;28;20136;-74
2022/10/18 04:25:13;;;;;;;11.27;7.78;;;;;;;13.41;100.00;99430.53;4156178;28;20136;-74
2022/10/18 04:27:13;;;;;;;10.55;8.05;;;;;;;13.40;100.00;99433.66;4161139;28;20044;-74
2022/10/18 04:29:13;;;;;;;11.15;7.45;;;;;;;13.39;100.00;99446.75;4155707;28;20466;-74
2022/10/18 04:31:14;;;;;;;12.25;9.05;;;;;;;13.41;100.00;99450.00;4157378;28;20069;-74
2022/10/18 04:33:14;;;;;;;14.70;9.95;;;;;;;13.44;100.00;99451.22;4156176;28;20478;-74
2022/10/18 04:35:14;;;;;;;15.50;10.65;;;;;;;13.51;100.00;99437.41;4156739;28;20320;-74
2022/10/18 04:37:14;;;;;;;15.23;9.35;;;;;;;13.58;100.00;99434.75;4156052;28;20047;-74
2022/10/18 04:39:15;;;;;;;11.43;9.55;;;;;;;13.62;100.00;99418.09;4156364;28;20045;-74
2022/10/18 04:41:15;;;;;;;19.00;9.07;;;;;;;13.66;100.00;99419.78;4156687;28;20048;-74
2022/10/18 04:43:16;;;;;;;18.45;9.38;;;;;;;13.67;100.00;99415.00;4156353;28;20544;-75
2022/10/18 04:45:16;;;;;;;14.65;8.93;;;;;;;13.68;100.00;99409.06;4158880;28;20045;-74
2022/10/18 04:47:16;;;;;;;13.35;9.10;;;;;;;13.70;100.00;99420.63;4158927;28;20064;-74
2022/10/18 04:49:17;;;;;;;14.90;10.68;;;;;;;13.71;100.00;99419.44;4155473;28;20455;-74
2022/10/18 04:51:17;;;;;;;17.60;11.30;;;;;;;13.69;100.00;99423.78;4155476;28;20385;-74
2022/10/18 04:53:18;;;;;;;17.73;11.57;;;;;;;13.68;100.00;99424.94;4155334;28;20030;-74
2022/10/18 04:55:19;;;;;;;17.20;11.30;;;;;;;13.70;100.00;99428.94;4158406;28;20134;-74
2022/10/18 04:57:19;;;;;;;20.88;11.80;;;;;;;13.68;100.00;99425.75;4101814;28;20041;-74
2022/10/18 04:59:19;;;;;;;14.32;10.45;;;;;;;13.69;100.00;99440.47;4158555;28;20052;-74
2022/10/18 05:01:20;;;;;;;15.65;10.93;;;;;;;13.73;100.00;99449.63;4155337;28;20079;-74
2022/10/18 05:03:20;;;;;;;16.75;12.02;;;;;;;13.79;100.00;99442.59;4156001;28;20053;-74
2022/10/18 05:05:20;;;;;;;18.55;11.13;;;;;;;13.82;100.00;99411.25;4155540;28;20049;-74
2022/10/18 05:07:21;;;;;;;19.55;11.80;;;;;;;13.85;100.00;99384.66;4155763;28;20070;-74
2022/10/18 05:09:23;;;;;;;16.02;11.02;;;;;;;13.87;100.00;99374.75;4155115;28;20049;-74
2022/10/18 05:11:23;;;;;;;17.58;11.30;;;;;;;13.87;100.00;99369.19;4159406;28;20044;-74
2022/10/18 05:13:24;;;;;;;14.00;9.98;;;;;;;13.91;100.00;99383.94;4156325;28;20046;-74
2022/10/18 05:15:25;;;;;;;15.50;10.82;;;;;;;13.95;100.00;99384.78;4156432;28;20050;-74
2022/10/18 05:17:25;;;;;;;14.00;9.68;;;;;;;13.95;100.00;99382.00;4155764;28;20095;-74
2022/10/18 05:19:25;;;;;;;14.30;9.30;;;;;;;14.00;100.00;99369.75;4156325;28;20594;-74
2022/10/18 05:21:26;;;;;;;13.35;9.40;;;;;;;14.04;100.00;99363.03;4157648;28;20037;-74
2022/10/18 05:23:26;;;;;;;13.77;9.30;;;;;;;14.08;100.00;99365.88;4158666;28;20390;-74
2022/10/18 05:25:27;;;;;;;11.45;8.73;;;;;;;14.11;100.00;99373.44;4156563;28;20041;-74
2022/10/18 05:27:28;;;;;;;11.70;9.55;;;;;;;14.14;100.00;99383.00;4157611;28;20487;-74
2022/10/18 05:29:28;;;;;;;13.93;9.75;;;;;;;14.18;100.00;99392.22;4158509;28;20498;-74
2022/10/18 05:31:28;;;;;;;14.80;10.07;;;;;;;14.20;100.00;99401.78;4159741;28;20243;-74
2022/10/18 05:33:29;;;;;;;14.40;9.82;;;;;;;14.24;100.00;99385.13;4156524;28;20452;-74
2022/10/18 05:35:29;;;;;;;14.40;10.65;;;;;;;14.20;100.00;99375.94;4161835;28;20045;-74
2022/10/18 05:37:30;;;;;;;17.42;11.05;;;;;;;14.20;100.00;99357.25;4158921;28;20053;-74
2022/10/18 05:39:30;;;;;;;18.08;10.63;;;;;;;14.18;100.00;99345.69;4154217;28;20124;-74
2022/10/18 05:41:30;;;;;;;16.73;10.23;;;;;;;14.18;100.00;99331.78;4160611;28;20048;-74
2022/10/18 05:43:31;;;;;;;14.43;9.50;;;;;;;14.19;100.00;99327.00;4155231;28;20049;-74
2022/10/18 05:45:31;;;;;;;12.43;9.05;;;;;;;14.19;100.00;99330.59;4158380;28;20319;-74
2022/10/18 05:47:31;;;;;;;11.40;7.38;;;;;;;14.17;100.00;99354.44;4155947;28;20092;-74
2022/10/18 05:49:32;;;;;;;8.77;6.78;;;;;;;14.12;100.00;99399.28;4154642;28;20102;-74
2022/10/18 05:51:32;;;;;;;11.23;7.75;;;;;;;14.17;100.00;99421.22;4154663;28;20096;-74
2022/10/18 05:53:32;;;;;;;13.77;6.90;;;;;;;14.12;100.00;99449.38;4155893;28;20049;-75
2022/10/18 05:55:32;;;;;;;10.80;6.13;;;;;;;14.19;100.00;99402.97;4154680;28;20037;-75
2022/10/18 05:57:33;;;;;;;11.98;5.80;;;;;;;14.08;100.00;99404.81;4155039;28;20037;-75
2022/10/18 05:59:33;;;;;;;10.60;5.28;;;;;;;14.14;100.00;99441.44;4155241;28;20042;-75
2022/10/18 06:01:33;;;;;;;9.05;2.97;;;;;;;14.22;100.00;99429.22;4156454;28;20080;-75
2022/10/18 06:03:34;;;;;;;7.25;3.70;;;;;;;14.18;100.00;99411.69;4155257;28;20099;-75
2022/10/18 06:05:35;;;;;;;6.65;3.15;;;;;;;14.13;100.00;99403.66;4153670;28;20045;-75
2022/10/18 06:07:35;;;;;;;3.90;2.40;;;;;;;14.09;100.00;99400.06;4155185;28;20421;-75
2022/10/18 06:09:36;;;;;;;5.65;2.95;;;;;;;14.05;100.00;99406.34;4154679;28;20074;-74
2022/10/18 06:11:36;;;;;;;5.45;2.40;;;;;;;14.02;100.00;99387.66;4155051;28;20056;-75
2022/10/18 06:13:48;;;;;;;5.95;2.13;;;;;;;14.03;100.00;99405.94;4154449;28;20046;-75
2022/10/18 06:15:49;;;;;;;5.70;1.80;;;;;;;14.00;100.00;99403.94;4155270;28;20207;-74
2022/10/18 06:17:49;;;;;;;6.20;2.30;;;;;;;14.04;100.00;99412.31;4156732;28;20334;-74
2022/10/18 06:19:49;;;;;;;4.50;1.80;;;;;;;14.01;100.00;99405.53;4156660;28;20061;-74
2022/10/18 06:21:49;;;;;;;3.50;1.80;;;;;;;14.05;100.00;99400.00;4153773;28;20046;-75
2022/10/18 06:23:51;;;;;;;2.13;1.50;;;;;;;14.08;100.00;99387.31;4158133;28;20512;-74
2022/10/18 06:25:52;;;;;;;4.28;1.40;;;;;;;14.12;100.00;99382.59;4159032;28;20469;-74
2022/10/18 06:27:52;;;;;;;3.10;1.38;;;;;;;14.11;100.00;99392.91;4158141;28;20068;-75
2022/10/18 06:29:52;;;;;;;2.70;1.65;;;;;;;14.13;100.00;99403.66;4155002;28;20065;-75
2022/10/18 06:31:52;;;;;;;2.75;1.70;;;;;;;14.06;100.00;99415.50;4164558;28;20129;-74
2022/10/18 06:33:56;;;;;;;7.30;2.00;;;;;;;14.06;100.00;99444.13;4155284;28;20839;-74
2022/10/18 06:35:59;;;;;;;7.80;2.50;;;;;;;14.05;100.00;99436.97;4154076;28;20045;-75
2022/10/18 06:37:59;;;;;;;7.78;3.40;;;;;;;14.01;100.00;99419.44;4154512;28;20057;-75
2022/10/18 06:39:59;;;;;;;8.10;3.63;;;;;;;14.02;100.00;99395.19;4157806;28;20037;-75
2022/10/18 06:42:00;;;;;;;5.03;3.08;;;;;;;14.01;100.00;99401.94;4157675;28;20103;-75
2022/10/18 06:44:06;;;;;;;8.07;2.92;;;;;;;13.98;100.00;99406.31;4154602;28;20482;-75
2022/10/18 06:46:07;;;;;;;5.90;2.83;;;;;;;14.01;100.00;99410.28;4154715;28;20458;-75
2022/10/18 06:48:07;;;;;;;7.35;2.60;;;;;;;14.02;100.00;99434.94;4154737;28;20021;-75
2022/10/18 06:50:08;;;;;;;5.13;3.03;;;;;;;14.02;100.00;99454.44;4153142;28;20670;-75
2022/10/18 06:52:08;;;;;;;5.72;3.97;;;;;;;14.04;100.00;99465.19;4154451;28;20349;-75
2022/10/18 06:54:09;;;;;;;8.77;3.47;;;;;;;14.04;100.00;99474.31;4154830;28;20025;-75
2022/10/18 06:56:11;;;;;;;8.90;3.90;;;;;;;14.05;100.00;99475.94;4153512;28;20449;-75
2022/10/18 06:58:12;;;;;;;9.32;3.15;;;;;;;14.05;100.00;99480.69;4155968;28;20369;-75
2022/10/18 07:00:13;;;;;;;7.03;2.67;;;;;;;14.01;100.00;99474.28;4162146;28;20025;-75
2022/10/18 07:02:16;;;;;;;4.18;2.40;;;;;;;13.98;100.00;99453.59;4155555;28;20037;-75
2022/10/18 07:04:16;;;;;;;6.13;2.55;;;;;;;13.99;100.00;99435.72;4156204;28;20034;-75
2022/10/18 07:06:17;;;;;;;5.25;3.45;;;;;;;13.99;100.00;99449.63;4153886;28;20037;-75
2022/10/18 07:08:17;;;;;;;4.03;2.55;;;;;;;13.98;100.00;99464.72;4152993;28;20034;-75
2022/10/18 07:10:18;;;;;;;18.13;8.75;;;;;;;13.96;100.00;99469.84;4153464;28;20029;-75
2022/10/18 07:12:18;;;;;;;18.42;9.10;;;;;;;13.97;100.00;99467.84;4153496;28;20044;-75
2022/10/18 07:14:18;;;;;;;15.55;8.65;;;;;;;13.98;100.00;99456.38;4154030;28;20450;-75
2022/10/18 07:16:19;;;;;;;14.20;7.10;;;;;;;13.98;100.00;99459.16;4155786;28;20030;-75
2022/10/18 07:18:21;;;;;;;6.13;3.50;;;;;;;14.02;100.00;99450.84;4155512;28;20140;-75
2022/10/18 07:20:21;;;;;;;8.82;4.63;;;;;;;14.03;100.00;99444.91;4158089;28;20364;-75
2022/10/18 07:22:22;;;;;;;9.52;4.32;;;;;;;14.08;100.00;99441.00;4159155;28;20518;-75
2022/10/18 07:24:22;;;;;;;7.13;3.70;;;;;;;14.09;100.00;99436.22;4156786;28;20431;-75
2022/10/18 07:26:28;;;;;;;4.78;2.60;;;;;;;14.12;100.00;99449.38;4158345;28;20053;-75
2022/10/18 07:28:28;;;;;;;11.05;2.80;;;;;;;14.11;100.00;99448.56;4165371;28;20056;-75
2022/10/18 07:30:28;;;;;;;4.65;2.60;;;;;;;14.14;100.00;99452.56;4159073;28;20064;-74
2022/10/18 07:32:29;;;;;;;6.07;2.80;;;;;;;14.12;100.00;99466.06;4158839;28;20509;-75
2022/10/18 07:34:29;;;;;;;4.18;2.30;;;;;;;14.12;100.00;99471.63;4158146;28;20501;-75
2022/10/18 07:36:30;;;;;;;4.25;2.38;;;;;;;14.12;100.00;99472.44;4162594;28;20084;-75
2022/10/18 07:38:30;;;;;;;6.20;2.78;;;;;;;14.12;100.00;99455.75;4162828;28;20461;-75
2022/10/18 07:40:31;;;;;;;3.70;2.50;;;;;;;14.16;100.00;99442.69;4157662;28;20600;-75
2022/10/18 07:42:34;;;;;;;3.53;2.67;;;;;;;14.20;100.00;99437.16;4159422;28;20046;-75
2022/10/18 07:44:34;;;;;;;4.72;3.00;;;;;;;14.25;100.00;99439.63;4156728;28;20061;-75
2022/10/18 07:46:34;;;;;;;5.22;3.65;;;;;;;14.29;100.00;99449.59;4159804;28;20045;-75
2022/10/18 07:48:35;;;;;;;4.30;2.75;;;;;;;14.34;100.00;99443.69;4157165;28;20126;-76
2022/10/18 07:50:35;;;;;;;4.60;3.13;;;;;;;14.37;100.00;99447.69;4157180;28;20048;-75
2022/10/18 07:52:35;;;;;;;4.03;2.65;;;;;;;14.40;100.00;99446.13;4156137;28;20342;-75
2022/10/18 07:54:36;;;;;;;5.63;2.63;;;;;;;14.43;100.00;99445.38;4157500;28;20051;-74
2022/10/18 07:56:36;;;;;;;3.78;2.70;;;;;;;14.46;100.00;99453.00;4158746;28;20416;-75
2022/10/18 07:58:36;;;;;;;4.20;2.65;;;;;;;14.46;100.00;99451.00;4162296;28;20438;-74
2022/10/18 08:00:37;;;;;;;2.92;2.10;;;;;;;14.51;100.00;99458.25;4160356;28;20079;-74
2022/10/18 08:02:37;;;;;;;6.00;2.75;;;;;;;14.52;100.00;99466.19;4158695;28;20350;-74
2022/10/18 08:04:38;;;;;;;4.10;2.92;;;;;;;14.54;100.00;99457.47;4156833;28;20148;-74
2022/10/18 08:06:38;;;;;;;11.35;7.00;;;;;;;14.56;100.00;99466.22;4155578;28;20448;-75
2022/10/18 08:08:39;;;;;;;19.55;11.65;;;;;;;14.56;100.00;99463.44;4157005;28;20135;-74
2022/10/18 08:10:39;;;;;;;11.40;7.70;;;;;;;14.58;100.00;99466.69;4156703;28;20037;-74
2022/10/18 08:12:40;;;;;;;10.55;6.55;;;;;;;14.58;100.00;99461.91;4160046;28;20363;-74
2022/10/18 08:14:41;;;;;;;7.43;5.10;;;;;;;14.58;100.00;99464.69;4156808;28;20048;-74
2022/10/18 08:16:41;;;;;;;6.03;4.32;;;;;;;14.59;100.00;99465.50;4157379;28;20675;-74
2022/10/18 08:18:42;;;;;;;6.43;3.97;;;;;;;14.58;100.00;99456.34;4155702;28;20445;-74
2022/10/18 08:20:44;;;;;;;5.93;3.72;;;;;;;14.63;100.00;99455.19;4156244;28;20036;-74
2022/10/18 08:22:44;;;;;;;3.55;2.63;;;;;;;14.67;100.00;99461.59;4163542;28;20083;-75
2022/10/18 08:24:44;;;;;;;4.13;2.40;;;;;;;14.67;100.00;99458.00;4162258;28;20054;-74
2022/10/18 08:26:44;;;;;;;2.53;1.90;;;;;;;14.69;100.00;99456.44;4156369;28;20458;-74
2022/10/18 08:28:45;;;;;;;3.10;2.25;;;;;;;14.68;100.00;99440.13;4154914;28;20204;-74
2022/10/18 08:30:45;;;;;;;3.67;1.95;;;;;;;14.75;100.00;99446.56;4162792;28;20115;-74
2022/10/18 08:32:45;;;;;;;3.65;1.73;;;;;;;14.77;100.00;99458.13;4155800;28;20064;-74
2022/10/18 08:34:46;;;;;;;4.15;2.10;;;;;;;14.80;100.00;99456.53;4154810;28;20077;-75
2022/10/18 08:36:46;;;;;;;2.53;1.90;;;;;;;14.78;100.00;99456.13;4156687;28;20049;-75
2022/10/18 08:38:48;;;;;;;2.75;1.70;;;;;;;14.81;100.00;99453.41;4159213;28;20132;-74
2022/10/18 08:40:48;;;;;;;3.75;1.70;;;;;;;14.86;100.00;99449.44;4161101;28;20041;-75
2022/10/18 08:43:06;;;;;;;4.78;2.17;;;;;;;14.92;100.00;99455.47;4156464;28;20108;-75
2022/10/18 08:45:10;;;;;;;3.72;1.70;;;;;;;14.92;100.00;99449.91;4158175;28;20496;-75
2022/10/18 08:47:19;;;;;;;2.30;1.48;;;;;;;14.96;100.00;99461.88;4158390;28;20474;-74
2022/10/18 08:49:40;;;;;;;2.60;1.70;;;;;;;14.97;100.00;99455.91;4160338;28;20044;-74
2022/10/18 08:51:46;;;;;;;1.65;1.40;;;;;;;14.99;100.00;99458.34;4156659;28;20037;-74
2022/10/18 08:54:10;;;;;;;2.15;1.50;;;;;;;15.05;100.00;99452.00;4161110;28;20512;-74
2022/10/18 08:56:15;;;;;;;2.20;1.70;;;;;;;15.11;100.00;99450.47;4159883;28;20194;-74
2022/10/18 08:58:25;;;;;;;2.88;2.13;;;;;;;15.18;100.00;99461.69;4159414;28;20033;-75
2022/10/18 09:00:30;;;;;;;2.47;1.73;;;;;;;15.24;100.00;99461.34;4158698;28;20429;-75
2022/10/18 09:02:40;;;;;;;3.13;2.10;;;;;;;15.29;100.00;99460.97;4156789;28;20037;-75
2022/10/18 09:04:43;;;;;;;4.40;2.47;;;;;;;15.31;100.00;99464.19;4157333;28;20415;-75
2022/10/18 09:06:52;;;;;;;1.80;1.55;;;;;;;15.28;100.00;99462.16;4158102;28;20411;-74
2022/10/18 09:09:11;;;;;;;2.20;1.80;;;;;;;15.29;100.00;99477.69;4157416;28;20049;-75
2022/10/18 09:11:44;;;;;;;2.50;2.10;;;;;;;15.21;100.00;99479.63;4155701;28;20385;-75
2022/10/18 09:14:09;;;;;;;2.78;1.80;;;;;;;15.17;100.00;99476.03;4155547;28;20042;-74
2022/10/18 09:16:19;;;;;;;3.08;2.20;;;;;;;15.13;100.00;99489.09;4155557;28;20060;-74
2022/10/18 09:18:25;;;;;;;4.53;2.92;;;;;;;15.05;100.00;99493.81;4161767;28;20033;-75
2022/10/18 09:20:30;;;;;;;3.97;2.20;;;;;;;15.00;100.00;99482.22;4157549;28;20119;-75
2022/10/18 09:22:39;;;;;;;3.08;2.00;;;;;;;15.01;100.00;99486.63;4161753;28;20045;-75
2022/10/18 09:24:56;;;;;;;2.58;1.60;;;;;;;14.95;100.00;99485.34;4158090;28;20536;-74
2022/10/18 09:27:03;;;;;;;2.45;1.70;;;;;;;14.94;100.00;99478.97;4159272;28;20091;-75
2022/10/18 09:29:25;;;;;;;2.70;1.80;;;;;;;14.92;100.00;99491.69;4158674;28;20059;-75
2022/10/18 09:31:38;;;;;;;1.70;1.60;;;;;;;14.84;100.00;99491.63;4159868;28;20056;-74